sensor_id;sensor_type;location;lat;lon;timestamp;pressure;altitude;pressure_sealevel;temperature;humidity
12471;BME280;36499;46.484;13.832;2022-12-31T00:01:12;93728.53;;;4.80;90.35
12471;BME280;36499;46.484;13.832;2022-12-31T00:03:41;93729.50;;;4.79;89.28
12471;BME280;36499;46.484;13.832;2022-12-31T00:06:15;93733.06;;;4.70;90.46
12471;BME280;36499;46.484;13.832;2022-12-31T00:08:42;93728.25;;;4.75;90.37
12471;BME280;36499;46.484;13.832;2022-12-31T00:11:14;93731.31;;;4.79;90.44
12471;BME280;36499;46.484;13.832;2022-12-31T00:13:42;93730.31;;;4.88;90.64
12471;BME280;36499;46.484;13.832;2022-12-31T00:16:13;93739.84;;;4.88;90.47
12471;BME280;36499;46.484;13.832;2022-12-31T00:18:45;93744.84;;;4.81;91.05
12471;BME280;36499;46.484;13.832;2022-12-31T00:21:14;93743.41;;;4.78;90.00
12471;BME280;36499;46.484;13.832;2022-12-31T00:23:41;93740.34;;;4.67;91.25
12471;BME280;36499;46.484;13.832;2022-12-31T00:26:12;93744.69;;;4.74;91.53
12471;BME280;36499;46.484;13.832;2022-12-31T00:28:40;93748.91;;;4.75;90.37
12471;BME280;36499;46.484;13.832;2022-12-31T00:31:11;93745.81;;;4.72;91.42
12471;BME280;36499;46.484;13.832;2022-12-31T00:33:39;93754.38;;;4.80;90.81
12471;BME280;36499;46.484;13.832;2022-12-31T00:36:11;93760.69;;;4.78;90.96
12471;BME280;36499;46.484;13.832;2022-12-31T00:38:42;93761.50;;;4.87;90.63
12471;BME280;36499;46.484;13.832;2022-12-31T00:41:11;93758.44;;;4.83;91.30
12471;BME280;36499;46.484;13.832;2022-12-31T00:43:38;93756.00;;;4.81;90.73
12471;BME280;36499;46.484;13.832;2022-12-31T00:46:06;93762.78;;;4.66;91.45
12471;BME280;36499;46.484;13.832;2022-12-31T00:48:34;93765.66;;;4.55;92.21
12471;BME280;36499;46.484;13.832;2022-12-31T00:51:10;93760.19;;;4.66;91.55
12471;BME280;36499;46.484;13.832;2022-12-31T00:53:43;93758.91;;;4.78;91.09
12471;BME280;36499;46.484;13.832;2022-12-31T00:56:14;93771.50;;;4.81;91.57
12471;BME280;36499;46.484;13.832;2022-12-31T00:58:41;93775.84;;;4.89;90.62
12471;BME280;36499;46.484;13.832;2022-12-31T01:01:11;93777.47;;;4.90;90.17
12471;BME280;36499;46.484;13.832;2022-12-31T01:03:38;93785.22;;;4.90;89.52
12471;BME280;36499;46.484;13.832;2022-12-31T01:06:06;93789.91;;;4.87;90.34
12471;BME280;36499;46.484;13.832;2022-12-31T01:08:34;93795.69;;;4.80;91.18
12471;BME280;36499;46.484;13.832;2022-12-31T01:11:03;93802.50;;;4.90;91.01
12471;BME280;36499;46.484;13.832;2022-12-31T01:13:48;93810.06;;;4.91;89.79
12471;BME280;36499;46.484;13.832;2022-12-31T01:16:18;93817.66;;;4.93;89.60
12471;BME280;36499;46.484;13.832;2022-12-31T01:18:45;93836.09;;;4.98;89.05
12471;BME280;36499;46.484;13.832;2022-12-31T01:21:14;93836.88;;;4.90;89.37
12471;BME280;36499;46.484;13.832;2022-12-31T01:23:41;93829.94;;;4.82;89.61
12471;BME280;36499;46.484;13.832;2022-12-31T01:26:14;93836.06;;;4.81;89.77
12471;BME280;36499;46.484;13.832;2022-12-31T01:28:42;93844.13;;;4.78;89.50
12471;BME280;36499;46.484;13.832;2022-12-31T01:31:12;93848.97;;;4.81;89.38
12471;BME280;36499;46.484;13.832;2022-12-31T01:33:40;93844.13;;;4.78;89.18
12471;BME280;36499;46.484;13.832;2022-12-31T01:36:11;93850.59;;;4.74;89.06
12471;BME280;36499;46.484;13.832;2022-12-31T01:38:40;93856.72;;;4.73;89.57
12471;BME280;36499;46.484;13.832;2022-12-31T01:41:18;93853.78;;;4.68;89.16
12471;BME280;36499;46.484;13.832;2022-12-31T01:43:50;93852.00;;;4.61;89.60
12471;BME280;36499;46.484;13.832;2022-12-31T01:46:27;93857.97;;;4.61;89.52
12471;BME280;36499;46.484;13.832;2022-12-31T01:48:59;93870.69;;;4.55;89.43
12471;BME280;36499;46.484;13.832;2022-12-31T01:51:31;93865.03;;;4.51;90.00
12471;BME280;36499;46.484;13.832;2022-12-31T01:54:02;93866.50;;;4.54;90.24
12471;BME280;36499;46.484;13.832;2022-12-31T01:56:33;93871.44;;;4.39;90.73
12471;BME280;36499;46.484;13.832;2022-12-31T01:59:05;93874.88;;;4.48;89.37
12471;BME280;36499;46.484;13.832;2022-12-31T02:01:36;93866.66;;;4.52;89.50
12471;BME280;36499;46.484;13.832;2022-12-31T02:04:10;93861.81;;;4.57;88.90
12471;BME280;36499;46.484;13.832;2022-12-31T02:06:43;93866.03;;;4.58;89.57
12471;BME280;36499;46.484;13.832;2022-12-31T02:09:11;93876.22;;;4.60;89.11
12471;BME280;36499;46.484;13.832;2022-12-31T02:11:40;93878.09;;;4.50;89.32
12471;BME280;36499;46.484;13.832;2022-12-31T02:14:13;93872.44;;;4.46;90.82
12471;BME280;36499;46.484;13.832;2022-12-31T02:16:51;93869.25;;;4.52;90.12
12471;BME280;36499;46.484;13.832;2022-12-31T02:19:54;93873.41;;;4.45;89.57
12471;BME280;36499;46.484;13.832;2022-12-31T02:22:45;93871.78;;;4.36;89.33
12471;BME280;36499;46.484;13.832;2022-12-31T02:25:53;93859.81;;;4.35;89.85
12471;BME280;36499;46.484;13.832;2022-12-31T02:28:48;93857.28;;;4.43;88.43
12471;BME280;36499;46.484;13.832;2022-12-31T02:31:27;93862.28;;;4.45;88.98
12471;BME280;36499;46.484;13.832;2022-12-31T02:34:01;93853.91;;;4.51;89.14
12471;BME280;36499;46.484;13.832;2022-12-31T02:36:37;93856.34;;;4.52;88.52
12471;BME280;36499;46.484;13.832;2022-12-31T02:39:10;93858.25;;;4.50;88.66
12471;BME280;36499;46.484;13.832;2022-12-31T02:41:38;93854.69;;;4.43;89.29
12471;BME280;36499;46.484;13.832;2022-12-31T02:44:23;93848.72;;;4.43;89.10
12471;BME280;36499;46.484;13.832;2022-12-31T02:47:05;93857.25;;;4.35;88.80
12471;BME280;36499;46.484;13.832;2022-12-31T02:49:48;93854.94;;;4.24;88.91
12471;BME280;36499;46.484;13.832;2022-12-31T02:52:32;93865.13;;;4.25;88.71
12471;BME280;36499;46.484;13.832;2022-12-31T02:55:12;93855.88;;;4.15;89.28
12471;BME280;36499;46.484;13.832;2022-12-31T02:57:48;93856.06;;;4.21;89.37
12471;BME280;36499;46.484;13.832;2022-12-31T03:00:21;93856.41;;;4.26;88.93
12471;BME280;36499;46.484;13.832;2022-12-31T03:03:09;93860.91;;;4.24;88.57
12471;BME280;36499;46.484;13.832;2022-12-31T03:05:41;93868.47;;;4.18;88.13
12471;BME280;36499;46.484;13.832;2022-12-31T03:08:09;93859.44;;;4.14;88.69
12471;BME280;36499;46.484;13.832;2022-12-31T03:10:36;93864.13;;;4.18;88.02
12471;BME280;36499;46.484;13.832;2022-12-31T03:13:03;93879.09;;;4.15;88.12
12471;BME280;36499;46.484;13.832;2022-12-31T03:15:31;93878.44;;;4.13;87.48
12471;BME280;36499;46.484;13.832;2022-12-31T03:18:03;93871.16;;;4.08;87.85
12471;BME280;36499;46.484;13.832;2022-12-31T03:20:35;93870.03;;;4.03;88.11
12471;BME280;36499;46.484;13.832;2022-12-31T03:23:23;93881.34;;;4.10;88.20
12471;BME280;36499;46.484;13.832;2022-12-31T03:25:51;93872.34;;;4.14;87.65
12471;BME280;36499;46.484;13.832;2022-12-31T03:28:21;93883.97;;;4.18;88.13
12471;BME280;36499;46.484;13.832;2022-12-31T03:30:52;93877.50;;;4.14;87.67
12471;BME280;36499;46.484;13.832;2022-12-31T03:33:23;93881.94;;;4.04;88.33
12471;BME280;36499;46.484;13.832;2022-12-31T03:35:53;93900.00;;;4.04;88.48
12471;BME280;36499;46.484;13.832;2022-12-31T03:38:20;93897.41;;;4.04;88.39
12471;BME280;36499;46.484;13.832;2022-12-31T03:40:50;93896.66;;;4.11;87.97
12471;BME280;36499;46.484;13.832;2022-12-31T03:43:19;93901.94;;;4.02;87.78
12471;BME280;36499;46.484;13.832;2022-12-31T03:45:48;93894.72;;;3.79;88.91
12471;BME280;36499;46.484;13.832;2022-12-31T03:48:16;93909.06;;;3.82;88.18
12471;BME280;36499;46.484;13.832;2022-12-31T03:50:43;93904.91;;;3.63;89.85
12471;BME280;36499;46.484;13.832;2022-12-31T03:53:12;93908.50;;;3.70;89.77
12471;BME280;36499;46.484;13.832;2022-12-31T03:55:40;93912.41;;;3.74;90.21
12471;BME280;36499;46.484;13.832;2022-12-31T03:58:07;93903.50;;;3.95;89.48
12471;BME280;36499;46.484;13.832;2022-12-31T04:00:34;93911.28;;;4.03;88.72
12471;BME280;36499;46.484;13.832;2022-12-31T04:03:02;93908.00;;;3.93;88.87
12471;BME280;36499;46.484;13.832;2022-12-31T04:05:29;93907.66;;;3.88;90.34
12471;BME280;36499;46.484;13.832;2022-12-31T04:07:57;93913.19;;;4.01;88.76
12471;BME280;36499;46.484;13.832;2022-12-31T04:10:26;93911.13;;;4.04;88.41
12471;BME280;36499;46.484;13.832;2022-12-31T04:12:53;93913.63;;;3.88;88.74
12471;BME280;36499;46.484;13.832;2022-12-31T04:15:21;93907.84;;;3.94;88.39
12471;BME280;36499;46.484;13.832;2022-12-31T04:17:48;93910.88;;;3.90;90.04
12471;BME280;36499;46.484;13.832;2022-12-31T04:20:16;93914.41;;;3.88;89.23
12471;BME280;36499;46.484;13.832;2022-12-31T04:22:43;93915.97;;;3.81;88.90
12471;BME280;36499;46.484;13.832;2022-12-31T04:25:11;93920.19;;;3.82;88.94
12471;BME280;36499;46.484;13.832;2022-12-31T04:27:41;93928.75;;;3.83;89.53
12471;BME280;36499;46.484;13.832;2022-12-31T04:30:11;93943.09;;;3.85;89.14
12471;BME280;36499;46.484;13.832;2022-12-31T04:32:39;93932.47;;;3.88;90.11
12471;BME280;36499;46.484;13.832;2022-12-31T04:35:08;93935.09;;;3.97;91.02
12471;BME280;36499;46.484;13.832;2022-12-31T04:37:35;93938.59;;;4.13;90.82
12471;BME280;36499;46.484;13.832;2022-12-31T04:40:03;93950.75;;;4.21;89.52
12471;BME280;36499;46.484;13.832;2022-12-31T04:42:30;93948.75;;;4.15;89.09
12471;BME280;36499;46.484;13.832;2022-12-31T04:44:59;93950.81;;;4.11;88.44
12471;BME280;36499;46.484;13.832;2022-12-31T04:47:26;93953.56;;;4.10;88.82
12471;BME280;36499;46.484;13.832;2022-12-31T04:49:53;93949.38;;;4.09;88.92
12471;BME280;36499;46.484;13.832;2022-12-31T04:52:20;93949.69;;;4.06;88.90
12471;BME280;36499;46.484;13.832;2022-12-31T04:54:48;93954.22;;;4.12;89.17
12471;BME280;36499;46.484;13.832;2022-12-31T04:57:15;93960.00;;;4.06;88.06
12471;BME280;36499;46.484;13.832;2022-12-31T04:59:42;93966.88;;;3.97;88.55
12471;BME280;36499;46.484;13.832;2022-12-31T05:02:10;93967.69;;;3.98;89.02
12471;BME280;36499;46.484;13.832;2022-12-31T05:04:37;93972.69;;;3.99;89.07
12471;BME280;36499;46.484;13.832;2022-12-31T05:07:04;93975.94;;;4.01;90.01
12471;BME280;36499;46.484;13.832;2022-12-31T05:09:31;93980.31;;;4.09;90.01
12471;BME280;36499;46.484;13.832;2022-12-31T05:11:59;93977.88;;;4.07;90.56
12471;BME280;36499;46.484;13.832;2022-12-31T05:14:26;93982.50;;;3.96;90.94
12471;BME280;36499;46.484;13.832;2022-12-31T05:16:53;93979.38;;;4.10;90.81
12471;BME280;36499;46.484;13.832;2022-12-31T05:19:22;93975.78;;;4.28;89.32
12471;BME280;36499;46.484;13.832;2022-12-31T05:21:49;93971.25;;;4.30;88.59
12471;BME280;36499;46.484;13.832;2022-12-31T05:24:30;93966.28;;;4.29;88.76
12471;BME280;36499;46.484;13.832;2022-12-31T05:26:57;93966.28;;;4.29;88.99
12471;BME280;36499;46.484;13.832;2022-12-31T05:29:24;93962.06;;;4.28;88.59
12471;BME280;36499;46.484;13.832;2022-12-31T05:31:51;93966.03;;;4.22;89.49
12471;BME280;36499;46.484;13.832;2022-12-31T05:34:19;93962.81;;;4.20;89.68
12471;BME280;36499;46.484;13.832;2022-12-31T05:36:47;93964.28;;;4.23;89.36
12471;BME280;36499;46.484;13.832;2022-12-31T05:39:14;93966.22;;;4.21;91.28
12471;BME280;36499;46.484;13.832;2022-12-31T05:41:41;93962.41;;;4.33;90.71
12471;BME280;36499;46.484;13.832;2022-12-31T05:44:09;93970.66;;;4.37;90.28
12471;BME280;36499;46.484;13.832;2022-12-31T05:46:36;93979.56;;;4.42;89.36
12471;BME280;36499;46.484;13.832;2022-12-31T05:49:03;93975.88;;;4.45;89.12
12471;BME280;36499;46.484;13.832;2022-12-31T05:51:31;93986.97;;;4.45;89.16
12471;BME280;36499;46.484;13.832;2022-12-31T05:53:59;93981.63;;;4.39;87.87
12471;BME280;36499;46.484;13.832;2022-12-31T05:56:26;93985.69;;;4.41;87.91
12471;BME280;36499;46.484;13.832;2022-12-31T05:58:53;93984.97;;;4.31;88.12
12471;BME280;36499;46.484;13.832;2022-12-31T06:01:20;93999.19;;;4.35;88.98
12471;BME280;36499;46.484;13.832;2022-12-31T06:03:47;93991.31;;;4.37;88.16
12471;BME280;36499;46.484;13.832;2022-12-31T06:06:16;94000.38;;;4.41;88.20
12471;BME280;36499;46.484;13.832;2022-12-31T06:08:43;94012.78;;;4.45;87.89
12471;BME280;36499;46.484;13.832;2022-12-31T06:11:12;94017.31;;;4.43;86.94
12471;BME280;36499;46.484;13.832;2022-12-31T06:13:39;94031.50;;;4.39;86.84
12471;BME280;36499;46.484;13.832;2022-12-31T06:16:06;94035.69;;;4.40;86.87
12471;BME280;36499;46.484;13.832;2022-12-31T06:18:34;94025.00;;;4.35;87.27
12471;BME280;36499;46.484;13.832;2022-12-31T06:21:02;94023.03;;;4.29;87.44
12471;BME280;36499;46.484;13.832;2022-12-31T06:23:29;94036.41;;;4.24;87.96
12471;BME280;36499;46.484;13.832;2022-12-31T06:25:59;94038.78;;;4.18;87.74
12471;BME280;36499;46.484;13.832;2022-12-31T06:28:28;94033.56;;;3.92;88.26
12471;BME280;36499;46.484;13.832;2022-12-31T06:30:58;94039.13;;;3.79;91.34
12471;BME280;36499;46.484;13.832;2022-12-31T06:33:26;94044.28;;;3.79;91.25
12471;BME280;36499;46.484;13.832;2022-12-31T06:35:55;94047.50;;;3.99;90.41
12471;BME280;36499;46.484;13.832;2022-12-31T06:38:22;94050.22;;;3.98;87.47
12471;BME280;36499;46.484;13.832;2022-12-31T06:40:49;94059.88;;;4.13;88.17
12471;BME280;36499;46.484;13.832;2022-12-31T06:43:16;94066.84;;;4.21;88.08
12471;BME280;36499;46.484;13.832;2022-12-31T06:45:44;94074.41;;;4.66;92.45
12471;BME280;36499;46.484;13.832;2022-12-31T06:48:11;94077.91;;;4.82;90.54
12471;BME280;36499;46.484;13.832;2022-12-31T06:50:39;94086.75;;;5.06;90.29
12471;BME280;36499;46.484;13.832;2022-12-31T06:53:06;94089.88;;;5.25;89.64
12471;BME280;36499;46.484;13.832;2022-12-31T06:55:35;94101.47;;;5.55;87.40
12471;BME280;36499;46.484;13.832;2022-12-31T06:58:03;94097.59;;;5.67;85.32
12471;BME280;36499;46.484;13.832;2022-12-31T07:00:31;94087.47;;;5.74;84.11
12471;BME280;36499;46.484;13.832;2022-12-31T07:03:21;94092.78;;;5.72;83.93
12471;BME280;36499;46.484;13.832;2022-12-31T07:06:01;94089.22;;;5.73;85.07
12471;BME280;36499;46.484;13.832;2022-12-31T07:08:45;94083.50;;;6.20;83.43
12471;BME280;36499;46.484;13.832;2022-12-31T07:11:20;94088.00;;;6.02;80.04
12471;BME280;36499;46.484;13.832;2022-12-31T07:14:10;94089.03;;;5.59;80.77
12471;BME280;36499;46.484;13.832;2022-12-31T07:17:00;94092.28;;;5.19;81.36
12471;BME280;36499;46.484;13.832;2022-12-31T07:19:47;94110.88;;;4.89;81.87
12471;BME280;36499;46.484;13.832;2022-12-31T07:22:18;94128.13;;;4.62;84.00
12471;BME280;36499;46.484;13.832;2022-12-31T07:24:46;94122.78;;;4.56;84.17
12471;BME280;36499;46.484;13.832;2022-12-31T07:27:37;94124.69;;;4.54;83.41
12471;BME280;36499;46.484;13.832;2022-12-31T07:30:13;94119.00;;;4.50;85.55
12471;BME280;36499;46.484;13.832;2022-12-31T07:33:07;94120.63;;;4.51;85.89
12471;BME280;36499;46.484;13.832;2022-12-31T07:35:52;94117.03;;;4.44;85.23
12471;BME280;36499;46.484;13.832;2022-12-31T07:38:31;94110.50;;;4.32;86.92
12471;BME280;36499;46.484;13.832;2022-12-31T07:41:11;94122.78;;;4.38;88.07
12471;BME280;36499;46.484;13.832;2022-12-31T07:43:53;94124.78;;;4.44;87.64
12471;BME280;36499;46.484;13.832;2022-12-31T07:46:32;94126.34;;;4.37;87.87
12471;BME280;36499;46.484;13.832;2022-12-31T07:49:02;94138.63;;;4.43;89.17
12471;BME280;36499;46.484;13.832;2022-12-31T07:51:31;94144.09;;;4.40;89.08
12471;BME280;36499;46.484;13.832;2022-12-31T07:53:58;94152.13;;;4.55;88.59
12471;BME280;36499;46.484;13.832;2022-12-31T07:56:26;94143.25;;;4.57;88.82
12471;BME280;36499;46.484;13.832;2022-12-31T07:59:05;94154.31;;;4.67;87.86
12471;BME280;36499;46.484;13.832;2022-12-31T08:01:44;94159.13;;;4.62;87.93
12471;BME280;36499;46.484;13.832;2022-12-31T08:04:26;94162.53;;;4.63;87.66
12471;BME280;36499;46.484;13.832;2022-12-31T08:07:06;94172.66;;;4.56;88.08
12471;BME280;36499;46.484;13.832;2022-12-31T08:09:45;94173.59;;;4.55;88.01
12471;BME280;36499;46.484;13.832;2022-12-31T08:12:18;94183.94;;;4.55;89.01
12471;BME280;36499;46.484;13.832;2022-12-31T08:14:48;94182.22;;;4.64;88.21
12471;BME280;36499;46.484;13.832;2022-12-31T08:17:17;94182.13;;;4.73;89.18
12471;BME280;36499;46.484;13.832;2022-12-31T08:19:46;94182.19;;;4.81;89.37
12471;BME280;36499;46.484;13.832;2022-12-31T08:22:45;94176.50;;;4.78;87.46
12471;BME280;36499;46.484;13.832;2022-12-31T08:25:21;94176.81;;;4.75;87.92
12471;BME280;36499;46.484;13.832;2022-12-31T08:28:06;94170.53;;;4.77;88.08
12471;BME280;36499;46.484;13.832;2022-12-31T08:30:52;94174.44;;;4.81;88.80
12471;BME280;36499;46.484;13.832;2022-12-31T08:33:27;94171.53;;;4.84;88.05
12471;BME280;36499;46.484;13.832;2022-12-31T08:36:11;94168.06;;;4.94;88.40
12471;BME280;36499;46.484;13.832;2022-12-31T08:38:52;94162.47;;;5.06;87.86
12471;BME280;36499;46.484;13.832;2022-12-31T08:41:30;94157.53;;;5.13;89.00
12471;BME280;36499;46.484;13.832;2022-12-31T08:44:09;94158.84;;;5.17;89.20
12471;BME280;36499;46.484;13.832;2022-12-31T08:46:48;94161.47;;;5.25;88.51
12471;BME280;36499;46.484;13.832;2022-12-31T08:49:21;94167.28;;;5.27;88.51
12471;BME280;36499;46.484;13.832;2022-12-31T08:51:51;94168.44;;;5.32;88.61
12471;BME280;36499;46.484;13.832;2022-12-31T08:54:24;94170.41;;;5.39;88.38
12471;BME280;36499;46.484;13.832;2022-12-31T08:57:08;94169.59;;;5.38;87.18
12471;BME280;36499;46.484;13.832;2022-12-31T08:59:51;94171.50;;;5.28;87.05
12471;BME280;36499;46.484;13.832;2022-12-31T09:02:50;94179.03;;;5.21;86.70
12471;BME280;36499;46.484;13.832;2022-12-31T09:05:25;94173.34;;;5.18;86.89
12471;BME280;36499;46.484;13.832;2022-12-31T09:08:08;94181.63;;;5.21;87.20
12471;BME280;36499;46.484;13.832;2022-12-31T09:10:54;94187.09;;;5.18;87.69
12471;BME280;36499;46.484;13.832;2022-12-31T09:13:34;94194.09;;;5.26;87.12
12471;BME280;36499;46.484;13.832;2022-12-31T09:16:12;94193.75;;;5.21;87.69
12471;BME280;36499;46.484;13.832;2022-12-31T09:18:42;94192.88;;;5.38;86.85
12471;BME280;36499;46.484;13.832;2022-12-31T09:21:14;94193.53;;;5.40;87.38
12471;BME280;36499;46.484;13.832;2022-12-31T09:23:42;94195.81;;;5.43;87.13
12471;BME280;36499;46.484;13.832;2022-12-31T09:26:36;94201.97;;;5.50;87.03
12471;BME280;36499;46.484;13.832;2022-12-31T09:29:19;94195.13;;;5.41;86.54
12471;BME280;36499;46.484;13.832;2022-12-31T09:32:00;94203.09;;;5.22;86.44
12471;BME280;36499;46.484;13.832;2022-12-31T09:34:36;94191.41;;;5.10;85.86
12471;BME280;36499;46.484;13.832;2022-12-31T09:37:14;94189.81;;;5.09;86.79
12471;BME280;36499;46.484;13.832;2022-12-31T09:39:44;94183.66;;;5.10;87.22
12471;BME280;36499;46.484;13.832;2022-12-31T09:42:48;94162.47;;;5.06;87.79
12471;BME280;36499;46.484;13.832;2022-12-31T09:46:09;94168.94;;;5.10;86.97
12471;BME280;36499;46.484;13.832;2022-12-31T09:50:02;94185.28;;;5.11;87.35
12471;BME280;36499;46.484;13.832;2022-12-31T09:53:00;94185.91;;;5.05;87.38
12471;BME280;36499;46.484;13.832;2022-12-31T09:55:36;94189.75;;;5.01;87.62
12471;BME280;36499;46.484;13.832;2022-12-31T09:58:23;94193.09;;;4.93;90.55
12471;BME280;36499;46.484;13.832;2022-12-31T10:01:02;94192.97;;;5.03;93.19
12471;BME280;36499;46.484;13.832;2022-12-31T10:04:06;94185.88;;;5.30;92.05
12471;BME280;36499;46.484;13.832;2022-12-31T10:06:48;94187.69;;;5.38;91.45
12471;BME280;36499;46.484;13.832;2022-12-31T10:09:41;94193.06;;;5.45;90.17
12471;BME280;36499;46.484;13.832;2022-12-31T10:12:41;94188.00;;;5.35;89.28
12471;BME280;36499;46.484;13.832;2022-12-31T10:15:52;94192.72;;;5.40;89.61
12471;BME280;36499;46.484;13.832;2022-12-31T10:18:43;94190.94;;;5.40;89.15
12471;BME280;36499;46.484;13.832;2022-12-31T10:21:35;94185.47;;;5.43;89.07
12471;BME280;36499;46.484;13.832;2022-12-31T10:24:33;94199.53;;;5.49;89.46
12471;BME280;36499;46.484;13.832;2022-12-31T10:27:23;94190.31;;;5.46;89.40
12471;BME280;36499;46.484;13.832;2022-12-31T10:30:02;94191.63;;;5.50;88.97
12471;BME280;36499;46.484;13.832;2022-12-31T10:32:42;94189.78;;;5.68;90.16
12471;BME280;36499;46.484;13.832;2022-12-31T10:35:28;94196.09;;;6.08;90.04
12471;BME280;36499;46.484;13.832;2022-12-31T10:38:13;94189.97;;;6.33;90.29
12471;BME280;36499;46.484;13.832;2022-12-31T10:41:18;94178.50;;;6.68;90.84
12471;BME280;36499;46.484;13.832;2022-12-31T10:47:46;94182.09;;;7.54;87.44
12471;BME280;36499;46.484;13.832;2022-12-31T10:54:41;94173.41;;;8.17;84.86
12471;BME280;36499;46.484;13.832;2022-12-31T10:57:47;94176.22;;;8.38;83.39
12471;BME280;36499;46.484;13.832;2022-12-31T11:00:21;94157.91;;;8.54;82.91
12471;BME280;36499;46.484;13.832;2022-12-31T11:10:30;94173.09;;;8.43;77.52
12471;BME280;36499;46.484;13.832;2022-12-31T11:13:43;94170.38;;;8.36;78.40
12471;BME280;36499;46.484;13.832;2022-12-31T11:16:43;94174.69;;;8.52;78.95
12471;BME280;36499;46.484;13.832;2022-12-31T11:19:24;94173.09;;;8.65;78.79
12471;BME280;36499;46.484;13.832;2022-12-31T11:22:32;94169.47;;;8.75;77.52
12471;BME280;36499;46.484;13.832;2022-12-31T11:25:22;94174.47;;;8.53;74.38
12471;BME280;36499;46.484;13.832;2022-12-31T11:28:18;94185.97;;;8.36;75.57
12471;BME280;36499;46.484;13.832;2022-12-31T11:34:07;94168.41;;;8.07;78.08
12471;BME280;36499;46.484;13.832;2022-12-31T11:36:55;94163.13;;;7.93;77.99
12471;BME280;36499;46.484;13.832;2022-12-31T11:39:41;94173.06;;;7.81;78.57
12471;BME280;36499;46.484;13.832;2022-12-31T11:42:20;94178.16;;;7.75;79.93
12471;BME280;36499;46.484;13.832;2022-12-31T11:44:58;94168.72;;;7.73;80.27
12471;BME280;36499;46.484;13.832;2022-12-31T11:47:58;94166.78;;;7.76;81.47
12471;BME280;36499;46.484;13.832;2022-12-31T11:50:43;94170.72;;;7.63;80.74
12471;BME280;36499;46.484;13.832;2022-12-31T11:53:33;94159.53;;;7.63;81.20
12471;BME280;36499;46.484;13.832;2022-12-31T11:56:15;94157.25;;;7.68;81.71
12471;BME280;36499;46.484;13.832;2022-12-31T11:58:46;94155.41;;;7.77;81.76
12471;BME280;36499;46.484;13.832;2022-12-31T12:01:21;94152.81;;;7.77;80.20
12471;BME280;36499;46.484;13.832;2022-12-31T12:03:50;94148.16;;;7.72;80.46
12471;BME280;36499;46.484;13.832;2022-12-31T12:06:23;94143.28;;;7.69;79.90
12471;BME280;36499;46.484;13.832;2022-12-31T12:08:56;94149.28;;;7.69;80.59
12471;BME280;36499;46.484;13.832;2022-12-31T12:11:29;94144.09;;;7.69;81.70
12471;BME280;36499;46.484;13.832;2022-12-31T12:13:57;94151.53;;;7.72;82.32
12471;BME280;36499;46.484;13.832;2022-12-31T12:16:26;94150.78;;;7.64;81.62
12471;BME280;36499;46.484;13.832;2022-12-31T12:19:04;94143.16;;;7.62;83.20
12471;BME280;36499;46.484;13.832;2022-12-31T12:21:33;94146.22;;;7.66;83.63
12471;BME280;36499;46.484;13.832;2022-12-31T12:24:04;94153.41;;;7.56;81.48
12471;BME280;36499;46.484;13.832;2022-12-31T12:26:36;94146.53;;;7.16;82.19
12471;BME280;36499;46.484;13.832;2022-12-31T12:29:16;94148.47;;;7.30;83.29
12471;BME280;36499;46.484;13.832;2022-12-31T12:31:55;94138.72;;;7.32;83.84
12471;BME280;36499;46.484;13.832;2022-12-31T12:34:26;94135.78;;;7.35;83.92
12471;BME280;36499;46.484;13.832;2022-12-31T12:36:55;94127.53;;;7.32;83.66
12471;BME280;36499;46.484;13.832;2022-12-31T12:39:28;94130.59;;;7.35;84.19
12471;BME280;36499;46.484;13.832;2022-12-31T12:42:01;94122.69;;;7.29;83.49
12471;BME280;36499;46.484;13.832;2022-12-31T12:44:30;94120.72;;;7.31;83.87
12471;BME280;36499;46.484;13.832;2022-12-31T12:46:58;94125.59;;;7.34;83.91
12471;BME280;36499;46.484;13.832;2022-12-31T12:49:31;94123.84;;;7.26;83.55
12471;BME280;36499;46.484;13.832;2022-12-31T12:52:22;94123.50;;;7.29;83.67
12471;BME280;36499;46.484;13.832;2022-12-31T12:55:09;94113.75;;;7.31;83.33
12471;BME280;36499;46.484;13.832;2022-12-31T12:57:49;94115.75;;;7.13;82.08
12471;BME280;36499;46.484;13.832;2022-12-31T13:00:21;94121.78;;;7.05;82.37
12471;BME280;36499;46.484;13.832;2022-12-31T13:03:21;94111.25;;;6.99;82.91
12471;BME280;36499;46.484;13.832;2022-12-31T13:09:07;94113.69;;;7.00;83.27
12471;BME280;36499;46.484;13.832;2022-12-31T13:11:49;94118.56;;;6.87;82.19
12471;BME280;36499;46.484;13.832;2022-12-31T13:14:28;94110.19;;;6.77;83.09
12471;BME280;36499;46.484;13.832;2022-12-31T13:17:28;94123.28;;;6.75;83.34
12471;BME280;36499;46.484;13.832;2022-12-31T13:20:04;94116.81;;;6.71;83.74
12471;BME280;36499;46.484;13.832;2022-12-31T13:22:41;94111.78;;;6.70;84.41
12471;BME280;36499;46.484;13.832;2022-12-31T13:25:25;94118.94;;;6.68;83.62
12471;BME280;36499;46.484;13.832;2022-12-31T13:28:02;94120.56;;;6.69;84.05
12471;BME280;36499;46.484;13.832;2022-12-31T13:30:35;94129.13;;;6.69;84.20
12471;BME280;36499;46.484;13.832;2022-12-31T13:33:12;94138.22;;;6.65;84.60
12471;BME280;36499;46.484;13.832;2022-12-31T13:35:45;94130.25;;;6.67;84.54
12471;BME280;36499;46.484;13.832;2022-12-31T13:38:20;94135.63;;;6.65;85.44
12471;BME280;36499;46.484;13.832;2022-12-31T13:40:59;94137.41;;;6.65;85.44
12471;BME280;36499;46.484;13.832;2022-12-31T13:43:38;94142.91;;;6.62;85.13
12471;BME280;36499;46.484;13.832;2022-12-31T13:46:18;94139.97;;;6.57;84.89
12471;BME280;36499;46.484;13.832;2022-12-31T13:48:53;94129.47;;;6.50;85.09
12471;BME280;36499;46.484;13.832;2022-12-31T13:51:42;94134.94;;;6.47;85.28
12471;BME280;36499;46.484;13.832;2022-12-31T13:54:27;94140.13;;;6.47;86.06
12471;BME280;36499;46.484;13.832;2022-12-31T13:57:01;94144.53;;;6.47;84.76
12471;BME280;36499;46.484;13.832;2022-12-31T13:59:35;94144.53;;;6.39;84.53
12471;BME280;36499;46.484;13.832;2022-12-31T14:02:23;94147.72;;;6.33;84.73
12471;BME280;36499;46.484;13.832;2022-12-31T14:05:02;94166.34;;;6.28;85.01
12471;BME280;36499;46.484;13.832;2022-12-31T14:07:37;94163.09;;;6.26;85.17